Shagang Hongfa — 9V9138 — position and weather

sailwx.info

Track history (hours):
 
Tides and Currents Weather Stations Pressure Air Temp Water Temp Dewpoint Dewpoint Depression Visibility Wind Speed Wind Dir Waves Ship Positions

Shagang Hongfa

Last reported at 2017-Mar-21 08:25 UTC. Time now 2017-Mar-23 04:12 UTC.
Position S 19°49' E 118°26'.

Length 292 m; draft 8.6 m.

Type: Cargo ship. MMSI: 566178000.

Date/timePositionNaut miles runAvg speedWind from/ knotsBaromVisibWave heightAir tempDewpointWater temp
2017-Mar-21 08:25S 19°49' E 118°26'1910.4
2017-Mar-21 06:33S 20°08' E 118°29'12 0.9
2017-Mar-20 17:25S 20°19' E 118°34'0 0.0
2017-Mar-20 14:31S 20°19' E 118°34'0 0.0
2017-Mar-20 09:07S 20°19' E 118°34'0 0.0
2017-Mar-19 11:32S 20°19' E 118°34'1 1.3
2017-Mar-19 10:34S 20°18' E 118°35'9 9.1
2017-Mar-19 09:34S 20°09' E 118°33'3 3.3
2017-Mar-19 08:31S 20°06' E 118°33'2 1.7
2017-Mar-19 07:30S 20°06' E 118°31'0 0.0
2017-Mar-19 05:18S 20°06' E 118°31'0 0.0
2017-Mar-19 04:30S 20°06' E 118°31'0 0.0
2017-Mar-19 02:06S 20°06' E 118°31'0 0.0
2017-Mar-19 01:30S 20°06' E 118°31'0 0.0
2017-Mar-18 12:18S 20°06' E 118°31'0 0.1
2017-Mar-18 10:12S 20°05' E 118°31'0 0.0
2017-Mar-18 09:30S 20°05' E 118°31'0 0.1
2017-Mar-18 07:30S 20°05' E 118°31'0 0.0
2017-Mar-18 00:30S 20°06' E 118°31'0 0.1
2017-Mar-17 23:24S 20°05' E 118°31'0 0.1
2017-Mar-17 22:30S 20°05' E 118°31'0 0.0
2017-Mar-17 21:30S 20°05' E 118°31'0 0.0
2017-Mar-17 19:18S 20°05' E 118°31'0 0.1
2017-Mar-17 17:24S 20°06' E 118°31'0 0.0
2017-Mar-17 16:30S 20°06' E 118°31'0 0.1
2017-Mar-17 15:30S 20°06' E 118°31'2 1.6
2017-Mar-17 14:33S 20°06' E 118°33'5 5.1
2017-Mar-17 13:32S 20°00' E 118°31'1111.2
2017-Mar-17 12:32S 19°50' E 118°26'1312.9
2017-Mar-17 11:34S 19°38' E 118°23'1212.1
2017-Mar-17 10:32S 19°26' E 118°20'2811.4
2017-Mar-17 08:04S 18°58' E 118°13'1111.6
2017-Mar-17 07:07S 18°48' E 118°10'  
Track history (hours):
 
Tides and Currents Weather Stations Pressure Air Temp Water Temp Dewpoint Dewpoint Depression Visibility Wind Speed Wind Dir Waves Ship Positions

Shagang Hongfa

Last reported at 2017-Mar-21 08:25 UTC. Time now 2017-Mar-23 04:12 UTC.
Position S 19°49' E 118°26'.

Length 292 m; draft 8.6 m.

Type: Cargo ship. MMSI: 566178000.

Date/timePositionNaut miles runAvg speedWind from/ knotsBaromVisibWave heightAir tempDewpointWater temp
2017-Mar-21 08:25S 19°49' E 118°26'1910.4
2017-Mar-21 06:33S 20°08' E 118°29'12 0.9
2017-Mar-20 17:25S 20°19' E 118°34'0 0.0
2017-Mar-20 14:31S 20°19' E 118°34'0 0.0
2017-Mar-20 09:07S 20°19' E 118°34'0 0.0
2017-Mar-19 11:32S 20°19' E 118°34'1 1.3
2017-Mar-19 10:34S 20°18' E 118°35'9 9.1
2017-Mar-19 09:34S 20°09' E 118°33'3 3.3
2017-Mar-19 08:31S 20°06' E 118°33'2 1.7
2017-Mar-19 07:30S 20°06' E 118°31'0 0.0
2017-Mar-19 05:18S 20°06' E 118°31'0 0.0
2017-Mar-19 04:30S 20°06' E 118°31'0 0.0
2017-Mar-19 02:06S 20°06' E 118°31'0 0.0
2017-Mar-19 01:30S 20°06' E 118°31'0 0.0
2017-Mar-18 12:18S 20°06' E 118°31'0 0.1
2017-Mar-18 10:12S 20°05' E 118°31'0 0.0
2017-Mar-18 09:30S 20°05' E 118°31'0 0.1
2017-Mar-18 07:30S 20°05' E 118°31'0 0.0
2017-Mar-18 00:30S 20°06' E 118°31'0 0.1
2017-Mar-17 23:24S 20°05' E 118°31'0 0.1
2017-Mar-17 22:30S 20°05' E 118°31'0 0.0
2017-Mar-17 21:30S 20°05' E 118°31'0 0.0
2017-Mar-17 19:18S 20°05' E 118°31'0 0.1
2017-Mar-17 17:24S 20°06' E 118°31'0 0.0
2017-Mar-17 16:30S 20°06' E 118°31'0 0.1
2017-Mar-17 15:30S 20°06' E 118°31'2 1.6
2017-Mar-17 14:33S 20°06' E 118°33'5 5.1
2017-Mar-17 13:32S 20°00' E 118°31'1111.2
2017-Mar-17 12:32S 19°50' E 118°26'1312.9
2017-Mar-17 11:34S 19°38' E 118°23'1212.1
2017-Mar-17 10:32S 19°26' E 118°20'2811.4
2017-Mar-17 08:04S 18°58' E 118°13'1111.6
2017-Mar-17 07:07S 18°48' E 118°10'  

Dump ship's entire track history